sensor_id;sensor_type;location;lat;lon;timestamp;temperature;humidity
12438;DHT22;6283;51.330;12.374;2024-02-21T00:01:39;8.90;99.90
12438;DHT22;6283;51.330;12.374;2024-02-21T00:04:05;9.10;99.90
12438;DHT22;6283;51.330;12.374;2024-02-21T00:06:31;8.90;99.90
12438;DHT22;6283;51.330;12.374;2024-02-21T00:08:57;9.00;99.90
12438;DHT22;6283;51.330;12.374;2024-02-21T00:11:23;9.00;99.90
12438;DHT22;6283;51.330;12.374;2024-02-21T00:13:48;9.00;99.90
12438;DHT22;6283;51.330;12.374;2024-02-21T00:16:15;8.90;99.90
12438;DHT22;6283;51.330;12.374;2024-02-21T00:18:41;8.80;99.90
12438;DHT22;6283;51.330;12.374;2024-02-21T00:21:07;8.80;99.90
12438;DHT22;6283;51.330;12.374;2024-02-21T00:23:32;8.90;99.90
12438;DHT22;6283;51.330;12.374;2024-02-21T00:25:58;8.70;99.90
12438;DHT22;6283;51.330;12.374;2024-02-21T00:28:24;9.00;99.90
12438;DHT22;6283;51.330;12.374;2024-02-21T00:30:49;9.00;99.90
12438;DHT22;6283;51.330;12.374;2024-02-21T00:33:17;8.70;99.90
12438;DHT22;6283;51.330;12.374;2024-02-21T00:35:42;8.70;99.90
12438;DHT22;6283;51.330;12.374;2024-02-21T00:38:08;9.10;99.90
12438;DHT22;6283;51.330;12.374;2024-02-21T00:40:34;9.00;99.90
12438;DHT22;6283;51.330;12.374;2024-02-21T00:43:00;8.90;99.90
12438;DHT22;6283;51.330;12.374;2024-02-21T00:45:26;8.80;99.90
12438;DHT22;6283;51.330;12.374;2024-02-21T00:47:51;8.90;99.90
12438;DHT22;6283;51.330;12.374;2024-02-21T00:50:17;8.90;99.90
12438;DHT22;6283;51.330;12.374;2024-02-21T00:52:42;8.80;99.90
12438;DHT22;6283;51.330;12.374;2024-02-21T00:55:08;8.90;99.90
12438;DHT22;6283;51.330;12.374;2024-02-21T00:57:34;8.80;99.90
12438;DHT22;6283;51.330;12.374;2024-02-21T01:00:01;8.60;99.90
12438;DHT22;6283;51.330;12.374;2024-02-21T01:02:26;8.90;99.90
12438;DHT22;6283;51.330;12.374;2024-02-21T01:04:52;8.60;99.90
12438;DHT22;6283;51.330;12.374;2024-02-21T01:07:18;8.90;99.90
12438;DHT22;6283;51.330;12.374;2024-02-21T01:09:43;8.70;99.90
12438;DHT22;6283;51.330;12.374;2024-02-21T01:12:09;8.80;99.90
12438;DHT22;6283;51.330;12.374;2024-02-21T01:14:35;8.80;99.90
12438;DHT22;6283;51.330;12.374;2024-02-21T01:17:00;8.70;99.90
12438;DHT22;6283;51.330;12.374;2024-02-21T01:19:26;8.80;99.90
12438;DHT22;6283;51.330;12.374;2024-02-21T01:21:52;8.70;99.90
12438;DHT22;6283;51.330;12.374;2024-02-21T01:24:17;8.90;99.90
12438;DHT22;6283;51.330;12.374;2024-02-21T01:26:43;8.70;99.90
12438;DHT22;6283;51.330;12.374;2024-02-21T01:29:09;8.80;99.90
12438;DHT22;6283;51.330;12.374;2024-02-21T01:31:34;8.70;99.90
12438;DHT22;6283;51.330;12.374;2024-02-21T01:34:00;8.60;99.90
12438;DHT22;6283;51.330;12.374;2024-02-21T01:36:26;8.50;99.90
12438;DHT22;6283;51.330;12.374;2024-02-21T01:38:51;8.60;99.90
12438;DHT22;6283;51.330;12.374;2024-02-21T01:41:17;8.60;99.90
12438;DHT22;6283;51.330;12.374;2024-02-21T01:43:43;8.80;99.90
12438;DHT22;6283;51.330;12.374;2024-02-21T01:46:08;8.70;99.90
12438;DHT22;6283;51.330;12.374;2024-02-21T01:48:34;8.70;99.90
12438;DHT22;6283;51.330;12.374;2024-02-21T01:51:00;8.70;99.90
12438;DHT22;6283;51.330;12.374;2024-02-21T01:53:35;8.80;99.90
12438;DHT22;6283;51.330;12.374;2024-02-21T01:56:02;8.80;99.90
12438;DHT22;6283;51.330;12.374;2024-02-21T01:58:31;8.70;99.90
12438;DHT22;6283;51.330;12.374;2024-02-21T02:00:57;8.70;99.90
12438;DHT22;6283;51.330;12.374;2024-02-21T02:03:23;8.70;99.90
12438;DHT22;6283;51.330;12.374;2024-02-21T02:05:51;8.50;99.90
12438;DHT22;6283;51.330;12.374;2024-02-21T02:08:18;8.90;99.90
12438;DHT22;6283;51.330;12.374;2024-02-21T02:10:45;8.70;99.90
12438;DHT22;6283;51.330;12.374;2024-02-21T02:13:11;8.60;99.90
12438;DHT22;6283;51.330;12.374;2024-02-21T02:15:44;8.80;99.90
12438;DHT22;6283;51.330;12.374;2024-02-21T02:18:10;8.90;99.90
12438;DHT22;6283;51.330;12.374;2024-02-21T02:20:37;8.50;99.90
12438;DHT22;6283;51.330;12.374;2024-02-21T02:23:27;8.80;99.90
12438;DHT22;6283;51.330;12.374;2024-02-21T02:25:53;8.70;99.90
12438;DHT22;6283;51.330;12.374;2024-02-21T02:28:20;8.90;99.90
12438;DHT22;6283;51.330;12.374;2024-02-21T02:30:46;8.60;99.90
12438;DHT22;6283;51.330;12.374;2024-02-21T02:33:12;8.90;99.90
12438;DHT22;6283;51.330;12.374;2024-02-21T02:35:37;8.60;99.90
12438;DHT22;6283;51.330;12.374;2024-02-21T02:38:03;8.60;99.90
12438;DHT22;6283;51.330;12.374;2024-02-21T02:40:30;8.70;99.90
12438;DHT22;6283;51.330;12.374;2024-02-21T02:42:55;8.80;99.90
12438;DHT22;6283;51.330;12.374;2024-02-21T02:45:22;8.80;99.90
12438;DHT22;6283;51.330;12.374;2024-02-21T02:47:49;8.70;99.90
12438;DHT22;6283;51.330;12.374;2024-02-21T02:50:14;8.80;99.90
12438;DHT22;6283;51.330;12.374;2024-02-21T02:52:40;8.80;99.90
12438;DHT22;6283;51.330;12.374;2024-02-21T02:55:06;8.90;99.90
12438;DHT22;6283;51.330;12.374;2024-02-21T02:57:32;8.60;99.90
12438;DHT22;6283;51.330;12.374;2024-02-21T02:59:58;8.80;99.90
12438;DHT22;6283;51.330;12.374;2024-02-21T03:02:23;8.80;99.90
12438;DHT22;6283;51.330;12.374;2024-02-21T03:04:49;8.80;99.90
12438;DHT22;6283;51.330;12.374;2024-02-21T03:07:15;8.60;99.90
12438;DHT22;6283;51.330;12.374;2024-02-21T03:09:42;8.80;99.90
12438;DHT22;6283;51.330;12.374;2024-02-21T03:12:11;8.90;99.90
12438;DHT22;6283;51.330;12.374;2024-02-21T03:14:37;8.60;99.90
12438;DHT22;6283;51.330;12.374;2024-02-21T03:17:03;8.90;99.90
12438;DHT22;6283;51.330;12.374;2024-02-21T03:19:29;8.80;99.90
12438;DHT22;6283;51.330;12.374;2024-02-21T03:21:55;8.80;99.90
12438;DHT22;6283;51.330;12.374;2024-02-21T03:24:21;8.80;99.90
12438;DHT22;6283;51.330;12.374;2024-02-21T03:26:47;8.70;99.90
12438;DHT22;6283;51.330;12.374;2024-02-21T03:29:15;8.70;99.90
12438;DHT22;6283;51.330;12.374;2024-02-21T03:31:41;8.70;99.90
12438;DHT22;6283;51.330;12.374;2024-02-21T03:34:07;8.70;99.90
12438;DHT22;6283;51.330;12.374;2024-02-21T03:36:33;8.70;99.90
12438;DHT22;6283;51.330;12.374;2024-02-21T03:38:59;8.70;99.90
12438;DHT22;6283;51.330;12.374;2024-02-21T03:41:24;8.70;99.90
12438;DHT22;6283;51.330;12.374;2024-02-21T03:43:50;8.70;99.90
12438;DHT22;6283;51.330;12.374;2024-02-21T03:46:15;8.80;99.90
12438;DHT22;6283;51.330;12.374;2024-02-21T03:48:41;8.80;99.90
12438;DHT22;6283;51.330;12.374;2024-02-21T03:51:07;8.90;99.90
12438;DHT22;6283;51.330;12.374;2024-02-21T03:53:33;8.70;99.90
12438;DHT22;6283;51.330;12.374;2024-02-21T03:56:02;8.70;99.90
12438;DHT22;6283;51.330;12.374;2024-02-21T03:58:29;8.70;99.90
12438;DHT22;6283;51.330;12.374;2024-02-21T04:00:55;8.70;99.90
12438;DHT22;6283;51.330;12.374;2024-02-21T04:03:21;8.80;99.90
12438;DHT22;6283;51.330;12.374;2024-02-21T04:05:46;8.70;99.90
12438;DHT22;6283;51.330;12.374;2024-02-21T04:08:12;8.70;99.90
12438;DHT22;6283;51.330;12.374;2024-02-21T04:10:38;8.80;99.90
12438;DHT22;6283;51.330;12.374;2024-02-21T04:13:05;8.60;99.90
12438;DHT22;6283;51.330;12.374;2024-02-21T04:15:31;8.70;99.90
12438;DHT22;6283;51.330;12.374;2024-02-21T04:17:57;8.70;99.90
12438;DHT22;6283;51.330;12.374;2024-02-21T04:20:22;8.80;99.90
12438;DHT22;6283;51.330;12.374;2024-02-21T04:22:48;8.70;99.90
12438;DHT22;6283;51.330;12.374;2024-02-21T04:25:15;8.70;99.90
12438;DHT22;6283;51.330;12.374;2024-02-21T04:27:40;8.90;99.90
12438;DHT22;6283;51.330;12.374;2024-02-21T04:30:07;8.60;99.90
12438;DHT22;6283;51.330;12.374;2024-02-21T04:32:33;8.70;99.90
12438;DHT22;6283;51.330;12.374;2024-02-21T04:34:58;8.60;99.90
12438;DHT22;6283;51.330;12.374;2024-02-21T04:37:24;8.70;99.90
12438;DHT22;6283;51.330;12.374;2024-02-21T04:39:50;8.70;99.90
12438;DHT22;6283;51.330;12.374;2024-02-21T04:42:16;8.70;99.90
12438;DHT22;6283;51.330;12.374;2024-02-21T04:44:41;8.50;99.90
12438;DHT22;6283;51.330;12.374;2024-02-21T04:47:07;8.50;99.90
12438;DHT22;6283;51.330;12.374;2024-02-21T04:49:33;8.50;99.90
12438;DHT22;6283;51.330;12.374;2024-02-21T04:52:00;8.70;99.90
12438;DHT22;6283;51.330;12.374;2024-02-21T04:54:25;8.60;99.90
12438;DHT22;6283;51.330;12.374;2024-02-21T04:56:51;8.30;99.90
12438;DHT22;6283;51.330;12.374;2024-02-21T04:59:17;8.60;99.90
12438;DHT22;6283;51.330;12.374;2024-02-21T05:01:42;8.80;99.90
12438;DHT22;6283;51.330;12.374;2024-02-21T05:04:08;8.70;99.90
12438;DHT22;6283;51.330;12.374;2024-02-21T05:06:38;8.40;99.90
12438;DHT22;6283;51.330;12.374;2024-02-21T05:09:04;8.40;99.90
12438;DHT22;6283;51.330;12.374;2024-02-21T05:11:31;8.40;99.90
12438;DHT22;6283;51.330;12.374;2024-02-21T05:13:56;8.50;99.90
12438;DHT22;6283;51.330;12.374;2024-02-21T05:16:22;8.50;99.90
12438;DHT22;6283;51.330;12.374;2024-02-21T05:18:47;8.60;99.90
12438;DHT22;6283;51.330;12.374;2024-02-21T05:21:13;8.70;99.90
12438;DHT22;6283;51.330;12.374;2024-02-21T05:23:39;8.70;99.90
12438;DHT22;6283;51.330;12.374;2024-02-21T05:26:05;8.60;99.90
12438;DHT22;6283;51.330;12.374;2024-02-21T05:28:31;8.60;99.90
12438;DHT22;6283;51.330;12.374;2024-02-21T05:30:56;8.70;99.90
12438;DHT22;6283;51.330;12.374;2024-02-21T05:33:22;8.70;99.90
12438;DHT22;6283;51.330;12.374;2024-02-21T05:35:48;8.80;99.90
12438;DHT22;6283;51.330;12.374;2024-02-21T05:38:14;8.60;99.90
12438;DHT22;6283;51.330;12.374;2024-02-21T05:40:40;8.80;99.90
12438;DHT22;6283;51.330;12.374;2024-02-21T05:43:07;8.70;99.90
12438;DHT22;6283;51.330;12.374;2024-02-21T05:45:33;8.70;99.90
12438;DHT22;6283;51.330;12.374;2024-02-21T05:47:59;8.70;99.90
12438;DHT22;6283;51.330;12.374;2024-02-21T05:50:25;8.60;99.90
12438;DHT22;6283;51.330;12.374;2024-02-21T05:52:53;8.60;99.90
12438;DHT22;6283;51.330;12.374;2024-02-21T05:55:19;8.60;99.90
12438;DHT22;6283;51.330;12.374;2024-02-21T05:57:45;8.70;99.90
12438;DHT22;6283;51.330;12.374;2024-02-21T06:00:11;8.70;99.90
12438;DHT22;6283;51.330;12.374;2024-02-21T06:02:36;8.60;99.90
12438;DHT22;6283;51.330;12.374;2024-02-21T06:05:02;8.70;99.90
12438;DHT22;6283;51.330;12.374;2024-02-21T06:07:28;8.70;99.90
12438;DHT22;6283;51.330;12.374;2024-02-21T06:09:53;8.40;99.90
12438;DHT22;6283;51.330;12.374;2024-02-21T06:12:19;8.70;99.90
12438;DHT22;6283;51.330;12.374;2024-02-21T06:14:45;8.40;99.90
12438;DHT22;6283;51.330;12.374;2024-02-21T06:17:10;8.50;99.90
12438;DHT22;6283;51.330;12.374;2024-02-21T06:19:40;8.40;99.90
12438;DHT22;6283;51.330;12.374;2024-02-21T06:22:07;8.00;99.90
12438;DHT22;6283;51.330;12.374;2024-02-21T06:24:34;8.10;99.90
12438;DHT22;6283;51.330;12.374;2024-02-21T06:26:59;8.10;99.90
12438;DHT22;6283;51.330;12.374;2024-02-21T06:29:25;7.90;99.90
12438;DHT22;6283;51.330;12.374;2024-02-21T06:31:51;8.00;99.90
12438;DHT22;6283;51.330;12.374;2024-02-21T06:34:16;8.00;99.90
12438;DHT22;6283;51.330;12.374;2024-02-21T06:36:42;8.10;99.90
12438;DHT22;6283;51.330;12.374;2024-02-21T06:39:08;8.00;99.90
12438;DHT22;6283;51.330;12.374;2024-02-21T06:41:33;7.90;99.90
12438;DHT22;6283;51.330;12.374;2024-02-21T06:43:59;8.20;99.90
12438;DHT22;6283;51.330;12.374;2024-02-21T06:46:26;8.30;99.90
12438;DHT22;6283;51.330;12.374;2024-02-21T06:48:52;8.30;99.90
12438;DHT22;6283;51.330;12.374;2024-02-21T06:51:18;8.30;99.90
12438;DHT22;6283;51.330;12.374;2024-02-21T06:53:43;8.20;99.90
12438;DHT22;6283;51.330;12.374;2024-02-21T06:56:10;8.30;99.90
12438;DHT22;6283;51.330;12.374;2024-02-21T06:58:36;8.30;99.90
12438;DHT22;6283;51.330;12.374;2024-02-21T07:01:01;8.40;99.90
12438;DHT22;6283;51.330;12.374;2024-02-21T07:03:27;8.40;99.90
12438;DHT22;6283;51.330;12.374;2024-02-21T07:05:53;8.30;99.90
12438;DHT22;6283;51.330;12.374;2024-02-21T07:08:18;8.40;99.90
12438;DHT22;6283;51.330;12.374;2024-02-21T07:10:44;8.50;99.90
12438;DHT22;6283;51.330;12.374;2024-02-21T07:13:10;8.40;99.90
12438;DHT22;6283;51.330;12.374;2024-02-21T07:15:35;8.40;99.90
12438;DHT22;6283;51.330;12.374;2024-02-21T07:18:02;8.40;99.90
12438;DHT22;6283;51.330;12.374;2024-02-21T07:20:28;8.30;99.90
12438;DHT22;6283;51.330;12.374;2024-02-21T07:22:54;8.70;99.90
12438;DHT22;6283;51.330;12.374;2024-02-21T07:25:19;8.60;99.90
12438;DHT22;6283;51.330;12.374;2024-02-21T07:27:45;8.50;99.90
12438;DHT22;6283;51.330;12.374;2024-02-21T07:30:11;8.60;99.90
12438;DHT22;6283;51.330;12.374;2024-02-21T07:32:37;8.60;99.90
12438;DHT22;6283;51.330;12.374;2024-02-21T07:35:03;8.40;99.90
12438;DHT22;6283;51.330;12.374;2024-02-21T07:37:28;8.70;99.90
12438;DHT22;6283;51.330;12.374;2024-02-21T07:39:54;8.80;99.90
12438;DHT22;6283;51.330;12.374;2024-02-21T07:42:20;8.60;99.90
12438;DHT22;6283;51.330;12.374;2024-02-21T07:44:45;8.70;99.90
12438;DHT22;6283;51.330;12.374;2024-02-21T07:47:11;8.90;99.90
12438;DHT22;6283;51.330;12.374;2024-02-21T07:49:46;9.10;99.90
12438;DHT22;6283;51.330;12.374;2024-02-21T07:52:11;8.80;99.90
12438;DHT22;6283;51.330;12.374;2024-02-21T07:54:37;8.90;99.90
12438;DHT22;6283;51.330;12.374;2024-02-21T07:57:03;8.80;99.90
12438;DHT22;6283;51.330;12.374;2024-02-21T07:59:29;8.70;99.90
12438;DHT22;6283;51.330;12.374;2024-02-21T08:01:58;9.00;99.90
12438;DHT22;6283;51.330;12.374;2024-02-21T08:04:25;9.10;99.90
12438;DHT22;6283;51.330;12.374;2024-02-21T08:06:54;9.00;99.90
12438;DHT22;6283;51.330;12.374;2024-02-21T08:09:26;9.00;99.90
12438;DHT22;6283;51.330;12.374;2024-02-21T08:11:53;9.20;99.90
12438;DHT22;6283;51.330;12.374;2024-02-21T08:14:19;9.10;99.90
12438;DHT22;6283;51.330;12.374;2024-02-21T08:16:45;9.10;99.90
12438;DHT22;6283;51.330;12.374;2024-02-21T08:19:11;9.00;99.90
12438;DHT22;6283;51.330;12.374;2024-02-21T08:21:36;9.10;99.90
12438;DHT22;6283;51.330;12.374;2024-02-21T08:24:02;9.10;99.90
12438;DHT22;6283;51.330;12.374;2024-02-21T08:26:28;9.20;99.90
12438;DHT22;6283;51.330;12.374;2024-02-21T08:28:58;9.10;99.90
12438;DHT22;6283;51.330;12.374;2024-02-21T08:31:26;9.10;99.90
12438;DHT22;6283;51.330;12.374;2024-02-21T08:34:00;9.10;99.90
12438;DHT22;6283;51.330;12.374;2024-02-21T08:36:33;9.10;99.90
12438;DHT22;6283;51.330;12.374;2024-02-21T08:38:59;9.00;99.90
12438;DHT22;6283;51.330;12.374;2024-02-21T08:41:25;9.10;99.90
12438;DHT22;6283;51.330;12.374;2024-02-21T08:43:52;9.10;99.90
12438;DHT22;6283;51.330;12.374;2024-02-21T08:46:22;9.00;99.90
12438;DHT22;6283;51.330;12.374;2024-02-21T08:48:50;9.20;99.90
12438;DHT22;6283;51.330;12.374;2024-02-21T08:51:16;9.10;99.90
12438;DHT22;6283;51.330;12.374;2024-02-21T08:53:43;9.00;99.90
12438;DHT22;6283;51.330;12.374;2024-02-21T08:56:09;9.20;99.90
12438;DHT22;6283;51.330;12.374;2024-02-21T08:58:39;9.30;99.90
12438;DHT22;6283;51.330;12.374;2024-02-21T09:01:05;9.00;99.90
12438;DHT22;6283;51.330;12.374;2024-02-21T09:03:32;8.90;99.90
12438;DHT22;6283;51.330;12.374;2024-02-21T09:05:59;9.00;99.90
12438;DHT22;6283;51.330;12.374;2024-02-21T09:08:26;9.10;99.90
12438;DHT22;6283;51.330;12.374;2024-02-21T09:10:52;8.90;99.90
12438;DHT22;6283;51.330;12.374;2024-02-21T09:13:18;8.90;99.90
12438;DHT22;6283;51.330;12.374;2024-02-21T09:15:43;9.10;99.90
12438;DHT22;6283;51.330;12.374;2024-02-21T09:18:09;9.10;99.90
12438;DHT22;6283;51.330;12.374;2024-02-21T09:20:35;8.90;99.90
12438;DHT22;6283;51.330;12.374;2024-02-21T09:23:00;9.00;99.90
12438;DHT22;6283;51.330;12.374;2024-02-21T09:25:26;9.20;99.90
12438;DHT22;6283;51.330;12.374;2024-02-21T09:27:54;9.20;99.90
12438;DHT22;6283;51.330;12.374;2024-02-21T09:30:20;9.30;99.90
12438;DHT22;6283;51.330;12.374;2024-02-21T09:32:46;9.10;99.90
12438;DHT22;6283;51.330;12.374;2024-02-21T09:35:12;9.40;99.90
12438;DHT22;6283;51.330;12.374;2024-02-21T09:37:39;9.30;99.90
12438;DHT22;6283;51.330;12.374;2024-02-21T09:40:05;9.30;99.90
12438;DHT22;6283;51.330;12.374;2024-02-21T09:42:42;9.30;99.90
12438;DHT22;6283;51.330;12.374;2024-02-21T09:45:11;9.30;99.90
12438;DHT22;6283;51.330;12.374;2024-02-21T09:50:38;9.30;99.90
12438;DHT22;6283;51.330;12.374;2024-02-21T09:53:06;9.20;99.90
12438;DHT22;6283;51.330;12.374;2024-02-21T09:55:36;9.30;99.90
12438;DHT22;6283;51.330;12.374;2024-02-21T09:58:05;9.50;99.90
12438;DHT22;6283;51.330;12.374;2024-02-21T10:00:31;9.30;99.90
12438;DHT22;6283;51.330;12.374;2024-02-21T10:02:58;9.40;99.90
12438;DHT22;6283;51.330;12.374;2024-02-21T10:05:23;9.70;99.90
12438;DHT22;6283;51.330;12.374;2024-02-21T10:07:51;9.60;99.90
12438;DHT22;6283;51.330;12.374;2024-02-21T10:10:17;9.70;99.90
12438;DHT22;6283;51.330;12.374;2024-02-21T10:12:50;9.40;99.90
12438;DHT22;6283;51.330;12.374;2024-02-21T10:15:20;9.70;99.90
12438;DHT22;6283;51.330;12.374;2024-02-21T10:17:47;9.70;99.90
12438;DHT22;6283;51.330;12.374;2024-02-21T10:20:13;9.70;99.90
12438;DHT22;6283;51.330;12.374;2024-02-21T10:22:40;9.50;99.90
12438;DHT22;6283;51.330;12.374;2024-02-21T10:25:11;9.80;99.90
12438;DHT22;6283;51.330;12.374;2024-02-21T10:27:40;9.80;99.90
12438;DHT22;6283;51.330;12.374;2024-02-21T10:30:07;9.90;99.90
12438;DHT22;6283;51.330;12.374;2024-02-21T10:32:33;9.60;99.90
12438;DHT22;6283;51.330;12.374;2024-02-21T10:35:03;9.70;99.90
12438;DHT22;6283;51.330;12.374;2024-02-21T10:37:32;9.70;99.90
12438;DHT22;6283;51.330;12.374;2024-02-21T10:39:57;9.60;99.90
12438;DHT22;6283;51.330;12.374;2024-02-21T10:42:28;9.70;99.90
12438;DHT22;6283;51.330;12.374;2024-02-21T10:45:00;10.10;99.90
12438;DHT22;6283;51.330;12.374;2024-02-21T10:47:30;9.70;99.90
12438;DHT22;6283;51.330;12.374;2024-02-21T10:50:04;10.00;99.90
12438;DHT22;6283;51.330;12.374;2024-02-21T10:55:04;10.00;99.90
12438;DHT22;6283;51.330;12.374;2024-02-21T10:57:31;10.00;99.90
12438;DHT22;6283;51.330;12.374;2024-02-21T10:59:59;10.10;99.90
12438;DHT22;6283;51.330;12.374;2024-02-21T11:02:25;10.00;99.90
12438;DHT22;6283;51.330;12.374;2024-02-21T11:04:54;9.90;99.90
12438;DHT22;6283;51.330;12.374;2024-02-21T11:07:20;10.10;99.90
12438;DHT22;6283;51.330;12.374;2024-02-21T11:09:53;10.10;99.90
12438;DHT22;6283;51.330;12.374;2024-02-21T11:12:21;10.10;99.90
12438;DHT22;6283;51.330;12.374;2024-02-21T11:14:47;10.20;99.90
12438;DHT22;6283;51.330;12.374;2024-02-21T11:17:20;10.10;99.90
12438;DHT22;6283;51.330;12.374;2024-02-21T11:19:52;10.10;99.90
12438;DHT22;6283;51.330;12.374;2024-02-21T11:22:19;10.30;99.90
12438;DHT22;6283;51.330;12.374;2024-02-21T11:24:47;10.40;99.90
12438;DHT22;6283;51.330;12.374;2024-02-21T11:29:53;10.60;99.90
12438;DHT22;6283;51.330;12.374;2024-02-21T11:32:20;10.80;99.90
12438;DHT22;6283;51.330;12.374;2024-02-21T11:35:02;10.80;99.90
12438;DHT22;6283;51.330;12.374;2024-02-21T11:37:31;10.70;99.90
12438;DHT22;6283;51.330;12.374;2024-02-21T11:39:59;10.60;99.90
12438;DHT22;6283;51.330;12.374;2024-02-21T11:42:29;10.70;99.90
12438;DHT22;6283;51.330;12.374;2024-02-21T11:44:55;10.70;99.90
12438;DHT22;6283;51.330;12.374;2024-02-21T11:47:22;10.90;99.90
12438;DHT22;6283;51.330;12.374;2024-02-21T11:49:48;10.60;99.90
12438;DHT22;6283;51.330;12.374;2024-02-21T11:52:24;10.60;99.90
12438;DHT22;6283;51.330;12.374;2024-02-21T11:54:53;10.50;99.90
12438;DHT22;6283;51.330;12.374;2024-02-21T11:57:20;10.70;99.90
12438;DHT22;6283;51.330;12.374;2024-02-21T11:59:46;10.60;99.90
12438;DHT22;6283;51.330;12.374;2024-02-21T12:02:12;10.60;99.90
12438;DHT22;6283;51.330;12.374;2024-02-21T12:04:39;10.80;99.90
12438;DHT22;6283;51.330;12.374;2024-02-21T12:07:05;10.80;99.90
12438;DHT22;6283;51.330;12.374;2024-02-21T12:09:31;10.80;99.90
12438;DHT22;6283;51.330;12.374;2024-02-21T12:12:01;10.80;99.90
12438;DHT22;6283;51.330;12.374;2024-02-21T12:14:29;10.70;99.90
12438;DHT22;6283;51.330;12.374;2024-02-21T12:16:55;10.90;99.90
12438;DHT22;6283;51.330;12.374;2024-02-21T12:19:21;11.10;99.90
12438;DHT22;6283;51.330;12.374;2024-02-21T12:21:48;11.00;99.90
12438;DHT22;6283;51.330;12.374;2024-02-21T12:24:17;10.80;99.90
12438;DHT22;6283;51.330;12.374;2024-02-21T12:26:43;10.60;99.90
12438;DHT22;6283;51.330;12.374;2024-02-21T12:29:09;10.70;99.90
12438;DHT22;6283;51.330;12.374;2024-02-21T12:31:36;10.70;99.90
12438;DHT22;6283;51.330;12.374;2024-02-21T12:34:02;10.90;99.90
12438;DHT22;6283;51.330;12.374;2024-02-21T12:36:27;10.80;99.90
12438;DHT22;6283;51.330;12.374;2024-02-21T12:38:53;11.10;99.90
12438;DHT22;6283;51.330;12.374;2024-02-21T12:41:19;11.10;99.90
12438;DHT22;6283;51.330;12.374;2024-02-21T12:43:44;11.10;99.90
12438;DHT22;6283;51.330;12.374;2024-02-21T12:46:10;11.30;99.90
12438;DHT22;6283;51.330;12.374;2024-02-21T12:48:35;11.20;99.90
12438;DHT22;6283;51.330;12.374;2024-02-21T12:51:01;11.20;99.90
12438;DHT22;6283;51.330;12.374;2024-02-21T12:53:27;11.30;99.90
12438;DHT22;6283;51.330;12.374;2024-02-21T12:55:52;11.70;99.90
12438;DHT22;6283;51.330;12.374;2024-02-21T12:58:18;11.90;99.90
12438;DHT22;6283;51.330;12.374;2024-02-21T13:00:44;12.20;99.90
12438;DHT22;6283;51.330;12.374;2024-02-21T13:03:10;12.50;99.90
12438;DHT22;6283;51.330;12.374;2024-02-21T13:05:36;12.90;99.90
12438;DHT22;6283;51.330;12.374;2024-02-21T13:08:02;12.90;99.90
12438;DHT22;6283;51.330;12.374;2024-02-21T13:10:28;13.00;99.90
12438;DHT22;6283;51.330;12.374;2024-02-21T13:12:53;13.20;99.90
12438;DHT22;6283;51.330;12.374;2024-02-21T13:15:20;13.30;99.90
12438;DHT22;6283;51.330;12.374;2024-02-21T13:17:45;13.70;99.90
12438;DHT22;6283;51.330;12.374;2024-02-21T13:20:13;14.00;70.60
12438;DHT22;6283;51.330;12.374;2024-02-21T13:22:38;14.00;99.90
12438;DHT22;6283;51.330;12.374;2024-02-21T13:25:05;14.10;99.90
12438;DHT22;6283;51.330;12.374;2024-02-21T13:27:33;14.20;99.90
12438;DHT22;6283;51.330;12.374;2024-02-21T13:29:59;14.50;99.90
12438;DHT22;6283;51.330;12.374;2024-02-21T13:32:25;14.30;99.90
12438;DHT22;6283;51.330;12.374;2024-02-21T13:34:51;14.40;99.90
12438;DHT22;6283;51.330;12.374;2024-02-21T13:37:18;14.20;99.90
12438;DHT22;6283;51.330;12.374;2024-02-21T13:39:43;14.00;99.90
12438;DHT22;6283;51.330;12.374;2024-02-21T13:42:09;13.90;99.90
12438;DHT22;6283;51.330;12.374;2024-02-21T13:44:35;13.90;49.30
12438;DHT22;6283;51.330;12.374;2024-02-21T13:47:02;13.90;99.90
12438;DHT22;6283;51.330;12.374;2024-02-21T13:49:27;13.90;99.90
12438;DHT22;6283;51.330;12.374;2024-02-21T13:51:54;13.80;94.10
12438;DHT22;6283;51.330;12.374;2024-02-21T13:54:19;13.90;63.90
12438;DHT22;6283;51.330;12.374;2024-02-21T13:56:46;13.90;99.90
12438;DHT22;6283;51.330;12.374;2024-02-21T13:59:12;13.60;99.90
12438;DHT22;6283;51.330;12.374;2024-02-21T14:01:41;13.70;99.90
12438;DHT22;6283;51.330;12.374;2024-02-21T14:04:08;13.50;99.90
12438;DHT22;6283;51.330;12.374;2024-02-21T14:06:33;13.40;70.50
12438;DHT22;6283;51.330;12.374;2024-02-21T14:08:59;13.40;99.90
12438;DHT22;6283;51.330;12.374;2024-02-21T14:11:25;13.40;99.90
12438;DHT22;6283;51.330;12.374;2024-02-21T14:13:52;13.60;99.90
12438;DHT22;6283;51.330;12.374;2024-02-21T14:16:18;13.90;99.90
12438;DHT22;6283;51.330;12.374;2024-02-21T14:18:43;13.70;47.50
12438;DHT22;6283;51.330;12.374;2024-02-21T14:21:10;13.90;99.90
12438;DHT22;6283;51.330;12.374;2024-02-21T14:23:36;13.80;99.90
12438;DHT22;6283;51.330;12.374;2024-02-21T14:26:03;13.90;1.00
12438;DHT22;6283;51.330;12.374;2024-02-21T14:28:29;13.90;99.90
12438;DHT22;6283;51.330;12.374;2024-02-21T14:30:54;13.80;99.90
12438;DHT22;6283;51.330;12.374;2024-02-21T14:33:23;13.60;99.90
12438;DHT22;6283;51.330;12.374;2024-02-21T14:35:49;13.60;99.90
12438;DHT22;6283;51.330;12.374;2024-02-21T14:38:15;13.50;99.90
12438;DHT22;6283;51.330;12.374;2024-02-21T14:40:40;13.50;91.80
12438;DHT22;6283;51.330;12.374;2024-02-21T14:43:06;13.20;92.80
12438;DHT22;6283;51.330;12.374;2024-02-21T14:45:32;13.20;99.90
12438;DHT22;6283;51.330;12.374;2024-02-21T14:47:57;13.20;99.90
12438;DHT22;6283;51.330;12.374;2024-02-21T14:50:23;13.10;99.90
12438;DHT22;6283;51.330;12.374;2024-02-21T14:52:49;13.10;99.90
12438;DHT22;6283;51.330;12.374;2024-02-21T14:55:15;12.90;99.90
12438;DHT22;6283;51.330;12.374;2024-02-21T14:57:40;13.00;99.90
12438;DHT22;6283;51.330;12.374;2024-02-21T15:00:09;12.90;99.90
12438;DHT22;6283;51.330;12.374;2024-02-21T15:02:36;12.70;20.60
12438;DHT22;6283;51.330;12.374;2024-02-21T15:05:02;13.00;18.50
12438;DHT22;6283;51.330;12.374;2024-02-21T15:07:29;12.90;1.00
12438;DHT22;6283;51.330;12.374;2024-02-21T15:09:54;12.80;51.20
12438;DHT22;6283;51.330;12.374;2024-02-21T15:12:20;12.90;66.90
12438;DHT22;6283;51.330;12.374;2024-02-21T15:14:47;12.90;99.90
12438;DHT22;6283;51.330;12.374;2024-02-21T15:17:13;12.90;75.50
12438;DHT22;6283;51.330;12.374;2024-02-21T15:19:39;12.90;70.00
12438;DHT22;6283;51.330;12.374;2024-02-21T15:22:11;12.80;61.20
12438;DHT22;6283;51.330;12.374;2024-02-21T15:24:38;13.00;21.30
12438;DHT22;6283;51.330;12.374;2024-02-21T15:27:04;12.90;99.90
12438;DHT22;6283;51.330;12.374;2024-02-21T15:29:30;12.80;99.90
12438;DHT22;6283;51.330;12.374;2024-02-21T15:31:55;12.90;89.30
12438;DHT22;6283;51.330;12.374;2024-02-21T15:34:21;12.80;99.90
12438;DHT22;6283;51.330;12.374;2024-02-21T15:36:47;12.80;95.70
12438;DHT22;6283;51.330;12.374;2024-02-21T15:39:13;12.70;99.90
12438;DHT22;6283;51.330;12.374;2024-02-21T15:41:39;12.80;99.90
12438;DHT22;6283;51.330;12.374;2024-02-21T15:44:05;12.50;99.90
12438;DHT22;6283;51.330;12.374;2024-02-21T15:46:31;12.50;59.30